Time;durP1;ratioP1;P1;durP2;ratioP2;P2;SDS_P1;SDS_P2;PMS_P1;PMS_P2;Temp;Humidity;BMP_temperature;BMP_pressure;BME280_temperature;BME280_humidity;BME280_pressure;Samples;Min_cycle;Max_cycle;Signal;HPM_P1;HPM_P2
2022/04/06 00:02:30;;;;;;;25.45;8.65;;;;;;;-145.45;100.00;62759.84;5390388;27;20026;-76
2022/04/06 00:05:01;;;;;;;26.92;9.85;;;;;;;-145.45;100.00;62759.84;5390169;27;41543;-76
2022/04/06 00:07:32;;;;;;;22.92;8.10;;;;;;;-145.45;100.00;62759.84;5391320;27;20027;-76
2022/04/06 00:10:05;;;;;;;22.48;8.00;;;;;;;-145.45;100.00;62759.84;5391357;27;20026;-76
2022/04/06 00:12:37;;;;;;;27.20;9.18;;;;;;;-145.45;100.00;62759.84;5389844;27;20471;-75
2022/04/06 00:15:11;;;;;;;24.63;9.13;;;;;;;-145.45;100.00;62759.84;5390219;27;20042;-75
2022/04/06 00:17:42;;;;;;;25.73;7.70;;;;;;;-145.45;100.00;62759.84;5390514;27;20029;-75
2022/04/06 00:20:14;;;;;;;23.33;8.52;;;;;;;-145.45;100.00;62759.84;5390921;27;20484;-75
2022/04/06 00:22:46;;;;;;;21.02;7.65;;;;;;;-145.45;100.00;62759.84;5391195;27;20483;-75
2022/04/06 00:25:17;;;;;;;27.63;8.50;;;;;;;-145.45;100.00;62759.84;5390392;27;20636;-75
2022/04/06 00:27:48;;;;;;;22.13;7.75;;;;;;;-145.45;100.00;62759.84;5390483;27;20038;-75
2022/04/06 00:30:19;;;;;;;27.80;9.13;;;;;;;-145.45;100.00;62759.84;5389990;27;20297;-75
2022/04/06 00:32:51;;;;;;;24.98;8.20;;;;;;;-145.45;100.00;62759.84;5385369;27;20034;-75
2022/04/06 00:35:28;;;;;;;22.35;8.32;;;;;;;-145.45;100.00;62759.84;5389380;27;20119;-75
2022/04/06 00:38:02;;;;;;;24.15;7.45;;;;;;;-145.45;100.00;62759.84;5387275;27;20171;-75
2022/04/06 00:40:35;;;;;;;22.10;8.07;;;;;;;-145.45;100.00;62759.84;5389425;27;20022;-75
2022/04/06 00:43:09;;;;;;;24.48;7.95;;;;;;;-145.45;100.00;62759.84;5388817;27;20503;-75
2022/04/06 00:45:41;;;;;;;26.35;7.57;;;;;;;-145.45;100.00;62759.84;5383954;27;20027;-75
2022/04/06 00:48:13;;;;;;;25.50;6.95;;;;;;;-145.45;100.00;62759.84;5386753;27;20045;-76
2022/04/06 00:50:44;;;;;;;22.63;8.60;;;;;;;-145.45;100.00;62759.84;5389518;27;20019;-76
2022/04/06 00:53:16;;;;;;;23.73;7.75;;;;;;;-145.45;100.00;62759.84;5387035;27;20027;-75
2022/04/06 00:55:48;;;;;;;22.65;7.53;;;;;;;-145.45;100.00;62759.84;5388392;27;20339;-76
2022/04/06 00:58:20;;;;;;;18.17;6.35;;;;;;;-145.45;100.00;62759.84;5386158;27;20030;-76
2022/04/06 01:00:51;;;;;;;23.60;7.50;;;;;;;-145.45;100.00;62759.84;5388553;27;20035;-76
2022/04/06 01:03:23;;;;;;;25.35;7.57;;;;;;;-145.45;100.00;62759.84;5386451;27;20027;-76
2022/04/06 01:05:55;;;;;;;21.95;7.40;;;;;;;-145.45;100.00;62759.84;5389404;27;20089;-75
2022/04/06 01:08:27;;;;;;;21.80;7.80;;;;;;;-145.45;100.00;62759.84;5387486;27;20037;-76
2022/04/06 01:10:58;;;;;;;19.60;6.88;;;;;;;-145.45;100.00;62759.84;5385133;27;20051;-75
2022/04/06 01:13:30;;;;;;;17.75;5.85;;;;;;;-145.45;100.00;62759.84;5385663;27;20053;-75
2022/04/06 01:16:01;;;;;;;22.33;6.43;;;;;;;-145.45;100.00;62759.84;5371941;27;20333;-75
2022/04/06 01:18:33;;;;;;;19.60;6.72;;;;;;;-145.45;100.00;62759.84;5397720;27;20502;-75
2022/04/06 01:21:04;;;;;;;16.10;6.10;;;;;;;-145.45;100.00;62759.84;5387907;27;20468;-75
2022/04/06 01:23:35;;;;;;;19.15;6.28;;;;;;;-145.45;100.00;62759.84;5386312;27;20035;-75
2022/04/06 01:26:08;;;;;;;17.38;6.82;;;;;;;-145.45;100.00;62759.84;5367368;27;20511;-75
2022/04/06 01:28:41;;;;;;;22.55;6.55;;;;;;;-145.45;100.00;62759.84;5379610;27;20123;-75
2022/04/06 01:31:12;;;;;;;19.65;6.15;;;;;;;-145.45;100.00;62759.84;5385847;27;20063;-75
2022/04/06 01:33:45;;;;;;;19.67;5.90;;;;;;;-145.45;100.00;62759.84;5383308;27;20457;-75
2022/04/06 01:36:16;;;;;;;20.17;6.38;;;;;;;-145.45;100.00;62759.84;5388017;27;20027;-75
2022/04/06 01:38:47;;;;;;;17.75;5.65;;;;;;;-145.45;100.00;62759.84;5388264;27;20027;-75
2022/04/06 01:41:18;;;;;;;15.98;5.90;;;;;;;-145.45;100.00;62759.84;5387325;27;20100;-75
2022/04/06 01:43:50;;;;;;;18.95;6.00;;;;;;;-145.45;100.00;62759.84;5385197;27;20019;-76
2022/04/06 01:46:21;;;;;;;21.67;5.93;;;;;;;-145.45;100.00;62759.84;5387002;27;20504;-75
2022/04/06 01:54:32;;;;;;;17.80;4.80;;;;;;;-145.45;100.00;62759.84;5388963;27;20034;-75
2022/04/06 01:57:04;;;;;;;21.40;5.93;;;;;;;-145.45;100.00;62759.84;5388232;27;20050;-75
2022/04/06 01:59:36;;;;;;;18.90;5.72;;;;;;;-145.45;100.00;62759.84;5388342;27;20113;-75
2022/04/06 02:02:08;;;;;;;16.50;5.13;;;;;;;-145.45;100.00;62759.84;5387302;27;20058;-75
2022/04/06 02:04:41;;;;;;;16.25;4.78;;;;;;;-145.45;100.00;62759.84;5386323;27;20096;-75
2022/04/06 02:07:16;;;;;;;12.43;4.80;;;;;;;-145.45;100.00;62759.84;5366143;27;20053;-75
2022/04/06 02:09:47;;;;;;;14.02;4.70;;;;;;;-145.45;100.00;62759.84;5388005;27;20035;-75
2022/04/06 02:12:21;;;;;;;17.77;5.25;;;;;;;-145.45;100.00;62759.84;5387572;27;20018;-75
2022/04/06 02:14:53;;;;;;;12.05;4.13;;;;;;;-145.45;100.00;62759.84;5387436;27;20031;-75
2022/04/06 02:17:28;;;;;;;21.00;4.95;;;;;;;-145.45;100.00;62759.84;5386226;27;20022;-75
2022/04/06 02:19:59;;;;;;;15.68;4.40;;;;;;;-145.45;100.00;62759.84;5388285;27;20042;-76
2022/04/06 02:22:30;;;;;;;12.95;4.38;;;;;;;-145.45;100.00;62759.84;5388275;27;20039;-75
2022/04/06 02:25:02;;;;;;;19.35;4.90;;;;;;;-145.45;100.00;62759.84;5385296;27;20023;-74
2022/04/06 02:27:33;;;;;;;16.02;4.88;;;;;;;-145.45;100.00;62759.84;5387285;27;20041;-76
2022/04/06 02:30:05;;;;;;;19.00;4.70;;;;;;;-145.45;100.00;62759.84;5368583;27;20100;-75
2022/04/06 02:32:37;;;;;;;15.10;4.70;;;;;;;-145.45;100.00;62759.84;5387067;27;20027;-75
2022/04/06 02:35:09;;;;;;;14.93;4.45;;;;;;;-145.45;100.00;62759.84;5387672;27;20023;-75
2022/04/06 02:37:41;;;;;;;12.60;4.47;;;;;;;-145.45;100.00;62759.84;5387169;27;20030;-75
2022/04/06 02:40:15;;;;;;;19.95;4.70;;;;;;;-145.45;100.00;62759.84;5387102;27;20031;-75
2022/04/06 02:42:46;;;;;;;12.02;3.95;;;;;;;-145.45;100.00;62759.84;5387274;27;20394;-76
2022/04/06 02:45:17;;;;;;;18.27;5.32;;;;;;;-145.45;100.00;62759.84;5385807;27;20033;-76
2022/04/06 02:47:49;;;;;;;16.05;4.40;;;;;;;-145.45;100.00;62759.84;5388395;27;20038;-75
2022/04/06 02:50:21;;;;;;;18.35;5.28;;;;;;;-145.45;100.00;62759.84;5386072;27;20023;-75
2022/04/06 02:52:52;;;;;;;17.38;4.13;;;;;;;-145.45;100.00;62759.84;5368151;27;20114;-75
2022/04/06 02:55:23;;;;;;;14.23;4.38;;;;;;;-145.45;100.00;62759.84;5384780;27;20026;-75
2022/04/06 02:57:55;;;;;;;14.10;4.72;;;;;;;-145.45;100.00;62759.84;5388089;27;20065;-75
2022/04/06 03:00:26;;;;;;;15.00;4.28;;;;;;;-145.45;100.00;62759.84;5387289;27;20027;-75
2022/04/06 03:02:58;;;;;;;16.45;4.45;;;;;;;-145.45;100.00;62759.84;5386473;27;20035;-75
2022/04/06 03:05:30;;;;;;;16.80;3.97;;;;;;;-145.45;100.00;62759.84;5388836;27;20086;-75
2022/04/06 03:08:01;;;;;;;12.38;4.05;;;;;;;-145.45;100.00;62759.84;5387915;27;20061;-75
2022/04/06 03:10:33;;;;;;;16.45;3.88;;;;;;;-145.45;100.00;62759.84;5388329;27;20037;-75
2022/04/06 03:13:04;;;;;;;13.88;4.00;;;;;;;-145.45;100.00;62759.84;5388556;27;20067;-75
2022/04/06 03:15:36;;;;;;;15.75;3.97;;;;;;;-145.45;100.00;62759.84;5387810;27;20038;-75
2022/04/06 03:18:07;;;;;;;15.30;3.75;;;;;;;-145.45;100.00;62759.84;5388279;27;20027;-75
2022/04/06 03:20:39;;;;;;;13.98;3.85;;;;;;;-145.45;100.00;62759.84;5383930;27;20395;-75
2022/04/06 03:23:10;;;;;;;12.75;3.60;;;;;;;-145.45;100.00;62759.84;5388077;27;20444;-75
2022/04/06 03:25:42;;;;;;;15.95;4.30;;;;;;;-145.45;100.00;62759.84;5388497;27;20113;-75
2022/04/06 03:28:14;;;;;;;10.13;3.45;;;;;;;-145.45;100.00;62759.84;5388008;27;20026;-76
2022/04/06 03:30:46;;;;;;;16.40;3.95;;;;;;;-145.45;100.00;62759.84;5387869;27;20053;-75
2022/04/06 03:33:17;;;;;;;12.48;3.33;;;;;;;-145.45;100.00;62759.84;5388581;27;20030;-75
2022/04/06 03:35:48;;;;;;;15.00;4.28;;;;;;;-145.45;100.00;62759.84;5385952;27;20064;-75
2022/04/06 03:38:19;;;;;;;15.15;3.70;;;;;;;-145.45;100.00;62759.84;5387443;27;20011;-75
2022/04/06 03:40:51;;;;;;;14.13;3.42;;;;;;;-145.45;100.00;62759.84;5388185;27;20435;-75
2022/04/06 03:43:22;;;;;;;11.55;3.55;;;;;;;-145.45;100.00;62759.84;5386936;27;20022;-76
2022/04/06 03:45:54;;;;;;;11.02;3.63;;;;;;;-145.45;100.00;62759.84;5388264;27;20474;-76
2022/04/06 03:48:25;;;;;;;11.93;3.40;;;;;;;-145.45;100.00;62759.84;5388041;27;20083;-76
2022/04/06 03:50:56;;;;;;;13.07;2.97;;;;;;;-145.45;100.00;62759.84;5376252;27;20034;-75
2022/04/06 03:53:28;;;;;;;12.30;3.40;;;;;;;-145.45;100.00;62759.84;5387922;27;20121;-75
2022/04/06 03:55:59;;;;;;;10.75;3.03;;;;;;;-145.45;100.00;62759.84;5387964;27;20046;-75
2022/04/06 03:58:31;;;;;;;15.65;4.30;;;;;;;-145.45;100.00;62759.84;5390063;27;20079;-75
2022/04/06 04:01:02;;;;;;;11.30;2.55;;;;;;;-145.45;100.00;62759.84;5388132;27;20027;-75
2022/04/06 04:03:33;;;;;;;11.80;2.92;;;;;;;-145.45;100.00;62759.84;5367031;27;20050;-75
2022/04/06 04:06:05;;;;;;;13.93;2.63;;;;;;;-145.45;100.00;62759.84;5386405;27;20030;-75
2022/04/06 04:08:37;;;;;;;13.98;3.47;;;;;;;-145.45;100.00;62759.84;5387321;27;20058;-75
2022/04/06 04:11:11;;;;;;;8.98;2.78;;;;;;;-145.45;100.00;62759.84;5364203;27;20027;-75
2022/04/06 04:13:42;;;;;;;9.45;2.92;;;;;;;-145.45;100.00;62759.84;5380372;27;20073;-75
2022/04/06 04:16:14;;;;;;;13.23;3.30;;;;;;;-145.45;100.00;62759.84;5386593;27;20096;-75
2022/04/06 04:18:45;;;;;;;10.25;3.13;;;;;;;-145.45;100.00;62759.84;5366542;27;20018;-75
2022/04/06 04:21:32;;;;;;;14.38;3.67;;;;;;;-145.45;100.00;62759.84;5388400;27;20083;-75
2022/04/06 04:24:08;;;;;;;12.88;3.78;;;;;;;-145.45;100.00;62759.84;5390683;27;20023;-76
2022/04/06 04:26:39;;;;;;;14.45;3.15;;;;;;;-145.45;100.00;62759.84;5371820;27;20081;-75
2022/04/06 04:29:10;;;;;;;15.23;4.05;;;;;;;-145.45;100.00;62759.84;5389103;27;20042;-75
2022/04/06 04:31:42;;;;;;;15.18;4.45;;;;;;;-145.45;100.00;62759.84;5390355;27;20027;-75
2022/04/06 04:34:14;;;;;;;15.48;4.20;;;;;;;-145.45;100.00;62759.84;5370993;27;20030;-76
2022/04/06 04:36:45;;;;;;;10.95;4.18;;;;;;;-145.45;100.00;62759.84;5386385;27;20023;-75
2022/04/06 04:39:18;;;;;;;16.52;4.43;;;;;;;-145.45;100.00;62759.84;5383754;27;20011;-75
2022/04/06 04:41:50;;;;;;;18.33;4.75;;;;;;;-145.45;100.00;62759.84;5386171;27;20022;-75
2022/04/06 04:44:22;;;;;;;17.80;4.50;;;;;;;-145.45;100.00;62759.84;5387533;27;20372;-75
2022/04/06 04:46:53;;;;;;;18.55;5.10;;;;;;;-145.45;100.00;62759.84;5388509;27;20041;-75
2022/04/06 04:49:24;;;;;;;21.08;5.70;;;;;;;-145.45;100.00;62759.84;5386134;27;20022;-75
2022/04/06 04:51:56;;;;;;;14.68;5.00;;;;;;;-145.45;100.00;62759.84;5388593;27;20048;-75
2022/04/06 04:54:27;;;;;;;20.60;5.78;;;;;;;-145.45;100.00;62759.84;5383899;27;20075;-75
2022/04/06 04:56:58;;;;;;;17.58;6.18;;;;;;;-145.45;100.00;62759.84;5388957;27;20023;-75
2022/04/06 04:59:30;;;;;;;19.73;5.68;;;;;;;-145.45;100.00;62759.84;5389021;27;20019;-76
2022/04/06 05:02:01;;;;;;;19.70;5.45;;;;;;;-145.45;100.00;62759.84;5389758;27;20022;-75
2022/04/06 05:04:32;;;;;;;19.58;6.25;;;;;;;-145.45;100.00;62759.84;5371334;27;20076;-76
2022/04/06 05:07:04;;;;;;;19.95;6.68;;;;;;;-145.45;100.00;62759.84;5390222;27;20030;-76
2022/04/06 05:09:36;;;;;;;14.82;5.45;;;;;;;-145.45;100.00;62759.84;5390327;27;20037;-75
2022/04/06 05:12:08;;;;;;;17.25;5.72;;;;;;;-145.45;100.00;62759.84;5372157;27;20119;-76
2022/04/06 05:14:39;;;;;;;17.60;5.93;;;;;;;-145.45;100.00;62759.84;5390958;27;20153;-76
2022/04/06 05:17:11;;;;;;;20.55;6.10;;;;;;;-145.45;100.00;62759.84;5391123;27;20093;-76
2022/04/06 05:19:42;;;;;;;19.30;5.60;;;;;;;-145.45;100.00;62759.84;5386035;27;20020;-75
2022/04/06 05:22:13;;;;;;;17.73;5.05;;;;;;;-145.45;100.00;62759.84;5390063;27;20103;-76
2022/04/06 05:24:44;;;;;;;15.52;4.85;;;;;;;-145.45;100.00;62759.84;5392958;27;20089;-76
2022/04/06 05:27:16;;;;;;;19.60;4.88;;;;;;;-145.45;100.00;62759.84;5381372;27;20417;-75
2022/04/06 05:29:47;;;;;;;20.20;5.10;;;;;;;-145.45;100.00;62759.84;5373351;27;20564;-76
2022/04/06 05:32:19;;;;;;;17.70;5.50;;;;;;;-145.45;100.00;62759.84;5390191;27;20026;-76
2022/04/06 05:34:50;;;;;;;16.60;5.03;;;;;;;-145.45;100.00;62759.84;5394040;27;20052;-75
2022/04/06 05:37:21;;;;;;;17.73;5.45;;;;;;;-145.45;100.00;62759.84;5373547;27;20192;-75
2022/04/06 05:39:52;;;;;;;11.65;4.45;;;;;;;-145.45;100.00;62759.84;5373487;27;20015;-75
2022/04/06 05:42:24;;;;;;;15.57;5.47;;;;;;;-145.45;100.00;62759.84;5391222;27;20026;-75
2022/04/06 05:44:56;;;;;;;18.98;4.75;;;;;;;-145.45;100.00;62759.84;5389988;27;20021;-75
2022/04/06 05:47:27;;;;;;;14.02;4.18;;;;;;;-145.45;100.00;62759.84;5388565;27;20034;-75
2022/04/06 05:49:59;;;;;;;19.55;5.15;;;;;;;-145.45;100.00;62759.84;5387785;27;20025;-75
2022/04/06 05:52:31;;;;;;;13.38;3.95;;;;;;;-145.45;100.00;62759.84;5368969;27;20034;-74
2022/04/06 05:55:03;;;;;;;15.73;3.75;;;;;;;-145.45;100.00;62759.84;5389813;27;20646;-75
2022/04/06 05:57:34;;;;;;;17.25;4.00;;;;;;;-145.45;100.00;62759.84;5368353;27;20598;-75
2022/04/06 06:00:08;;;;;;;7.35;3.00;;;;;;;-145.45;100.00;62759.84;5390593;27;20129;-75
2022/04/06 06:02:39;;;;;;;17.38;3.92;;;;;;;-145.45;100.00;62759.84;5387732;27;20038;-75
2022/04/06 06:05:11;;;;;;;14.77;3.08;;;;;;;-145.45;100.00;62759.84;5389432;27;20019;-76
2022/04/06 06:07:42;;;;;;;15.20;3.55;;;;;;;-145.45;100.00;62759.84;5370401;27;20053;-76
2022/04/06 06:10:13;;;;;;;14.70;2.92;;;;;;;-145.45;100.00;62759.84;5388948;27;20026;-75
2022/04/06 06:12:45;;;;;;;9.90;2.00;;;;;;;-145.45;100.00;62759.84;5387454;27;20091;-75
2022/04/06 06:15:16;;;;;;;11.43;2.65;;;;;;;-145.45;100.00;62759.84;5388860;27;20135;-76
2022/04/06 06:17:47;;;;;;;8.50;2.13;;;;;;;-145.45;100.00;62759.84;5388401;27;20037;-75
2022/04/06 06:20:19;;;;;;;7.63;2.38;;;;;;;-145.45;100.00;62759.84;5387479;27;20078;-76
2022/04/06 06:22:50;;;;;;;6.75;1.63;;;;;;;-145.45;100.00;62759.84;5390022;27;20099;-76
2022/04/06 06:25:21;;;;;;;12.02;2.10;;;;;;;-145.45;100.00;62759.84;5389927;27;20027;-75
2022/04/06 06:27:53;;;;;;;5.22;1.88;;;;;;;-145.45;100.00;62759.84;5388922;27;20164;-76
2022/04/06 06:30:27;;;;;;;8.43;1.95;;;;;;;-145.45;100.00;62759.84;5389110;27;20482;-75
2022/04/06 06:32:59;;;;;;;9.73;1.70;;;;;;;-145.45;100.00;62759.84;5389964;27;20408;-75
2022/04/06 06:35:30;;;;;;;9.18;2.00;;;;;;;-145.45;100.00;62759.84;5389792;27;20019;-74
2022/04/06 06:38:02;;;;;;;5.82;1.38;;;;;;;-145.45;100.00;62759.84;5391060;27;20025;-74
2022/04/06 06:40:33;;;;;;;6.82;1.38;;;;;;;-145.45;100.00;62759.84;5395304;27;20094;-74
2022/04/06 06:43:05;;;;;;;6.70;1.73;;;;;;;-145.45;100.00;62759.84;5390071;27;20021;-77
2022/04/06 06:45:36;;;;;;;5.10;1.50;;;;;;;-145.45;100.00;62759.84;5390312;27;20019;-77
2022/04/06 06:48:08;;;;;;;6.78;1.92;;;;;;;-145.45;100.00;62759.84;5389749;27;20031;-74
2022/04/06 06:50:39;;;;;;;6.38;1.77;;;;;;;-145.45;100.00;62759.84;5389418;27;20019;-75
2022/04/06 06:53:10;;;;;;;6.85;1.90;;;;;;;-145.45;100.00;62759.84;5389511;27;20343;-75
2022/04/06 06:55:42;;;;;;;4.03;1.20;;;;;;;-145.45;100.00;62759.84;5390248;27;20436;-77
2022/04/06 06:58:13;;;;;;;7.07;1.30;;;;;;;-145.45;100.00;62759.84;5389667;27;20457;-77
2022/04/06 07:00:44;;;;;;;6.63;1.35;;;;;;;-145.45;100.00;62759.84;5389657;27;20018;-76
2022/04/06 07:03:15;;;;;;;6.18;1.40;;;;;;;-145.45;100.00;62759.84;5369215;27;20023;-76
2022/04/06 07:05:48;;;;;;;5.60;2.03;;;;;;;-145.45;100.00;62759.84;5368501;27;20023;-75
2022/04/06 07:08:20;;;;;;;10.68;1.58;;;;;;;-145.45;100.00;62759.84;5385776;27;20039;-76
2022/04/06 07:10:51;;;;;;;8.27;1.80;;;;;;;-145.45;100.00;62759.84;5390169;27;20025;-77
2022/04/06 07:13:23;;;;;;;7.65;1.58;;;;;;;-145.45;100.00;62759.84;5370020;27;20031;-76
2022/04/06 07:15:54;;;;;;;10.48;1.17;;;;;;;-145.45;100.00;62759.84;5370750;27;20029;-78
2022/04/06 07:18:26;;;;;;;7.00;1.67;;;;;;;-145.45;100.00;62759.84;5389410;27;20050;-77
2022/04/06 07:20:58;;;;;;;10.57;2.33;;;;;;;-145.45;100.00;62759.84;5389742;27;20022;-76
2022/04/06 07:23:29;;;;;;;11.70;2.55;;;;;;;-145.45;100.00;62759.84;5370136;27;20038;-78
2022/04/06 07:26:00;;;;;;;8.93;2.85;;;;;;;-145.45;100.00;62759.84;5389543;27;20481;-74
2022/04/06 07:28:32;;;;;;;8.90;2.70;;;;;;;-145.45;100.00;62759.84;5388753;27;20435;-76
2022/04/06 07:31:04;;;;;;;9.15;3.42;;;;;;;-145.45;100.00;62759.84;5389695;27;20015;-76
2022/04/06 07:33:36;;;;;;;12.82;3.53;;;;;;;-145.45;100.00;62759.84;5388944;27;20123;-76
2022/04/06 07:36:08;;;;;;;8.23;2.80;;;;;;;-145.45;100.00;62759.84;5389505;27;20026;-76
2022/04/06 07:38:39;;;;;;;12.45;3.78;;;;;;;-145.45;100.00;62759.84;5380284;27;20117;-75
2022/04/06 07:41:11;;;;;;;11.13;3.20;;;;;;;-145.45;100.00;62759.84;5363289;27;34948;-76
2022/04/06 07:43:44;;;;;;;12.73;2.95;;;;;;;-145.45;100.00;62759.84;5371285;27;20101;-75
2022/04/06 07:46:15;;;;;;;11.40;3.17;;;;;;;-145.45;100.00;62759.84;5389502;27;20423;-76
2022/04/06 07:48:47;;;;;;;10.45;3.20;;;;;;;-145.45;100.00;62759.84;5389724;27;20019;-76
2022/04/06 07:51:18;;;;;;;10.95;3.13;;;;;;;-145.45;100.00;62759.84;5389827;27;20026;-76
2022/04/06 07:53:49;;;;;;;7.30;2.72;;;;;;;-145.45;100.00;62759.84;5389409;27;20662;-76
2022/04/06 07:56:21;;;;;;;12.10;3.45;;;;;;;-145.45;100.00;62759.84;5392995;27;20351;-76
2022/04/06 07:58:52;;;;;;;13.20;3.50;;;;;;;-145.45;100.00;62759.84;5392541;27;20472;-76
2022/04/06 08:01:23;;;;;;;9.13;2.95;;;;;;;-145.45;100.00;62759.84;5393412;27;20398;-76
2022/04/06 08:03:54;;;;;;;12.93;3.72;;;;;;;-145.45;100.00;62759.84;5393175;27;20558;-75
2022/04/06 08:06:26;;;;;;;7.70;3.33;;;;;;;-145.45;100.00;62759.84;5392683;27;20474;-76
2022/04/06 08:08:59;;;;;;;11.40;3.28;;;;;;;-145.45;100.00;62759.84;5393093;27;20439;-76
2022/04/06 08:11:30;;;;;;;10.52;3.08;;;;;;;-145.45;100.00;62759.84;5393434;27;20026;-75
2022/04/06 08:14:01;;;;;;;8.43;2.95;;;;;;;-145.45;100.00;62759.84;5390840;27;41642;-76
2022/04/06 08:16:32;;;;;;;9.70;2.90;;;;;;;-145.45;100.00;62759.84;5393338;27;20027;-75
2022/04/06 08:19:04;;;;;;;8.95;2.95;;;;;;;-145.45;100.00;62759.84;5393131;27;20011;-76
2022/04/06 08:21:36;;;;;;;8.38;2.60;;;;;;;-145.45;100.00;62759.84;5392947;27;20049;-76
2022/04/06 08:24:07;;;;;;;11.30;2.80;;;;;;;-145.45;100.00;62759.84;5392224;27;20031;-75
2022/04/06 08:26:39;;;;;;;7.43;2.67;;;;;;;-145.45;100.00;62759.84;5392884;27;20031;-75
2022/04/06 08:29:10;;;;;;;7.20;2.47;;;;;;;-145.45;100.00;62759.84;5376501;27;20023;-75
2022/04/06 08:31:42;;;;;;;7.88;2.50;;;;;;;-145.45;100.00;62759.84;5393016;27;20079;-75
2022/04/06 08:34:13;;;;;;;11.60;2.60;;;;;;;-145.45;100.00;62759.84;5392076;27;20443;-75
2022/04/06 08:36:45;;;;;;;11.23;2.80;;;;;;;-145.45;100.00;62759.84;5392895;27;20495;-76
2022/04/06 08:39:16;;;;;;;9.07;2.65;;;;;;;-145.45;100.00;62759.84;5391756;27;20501;-75
2022/04/06 08:41:47;;;;;;;11.43;2.90;;;;;;;-145.45;100.00;62759.84;5373257;27;20019;-75
2022/04/06 08:44:19;;;;;;;9.02;3.13;;;;;;;-145.45;100.00;62759.84;5391317;27;20367;-76
2022/04/06 08:46:51;;;;;;;9.48;2.40;;;;;;;-145.45;100.00;62759.84;5392552;27;20379;-76
2022/04/06 08:49:23;;;;;;;11.35;2.38;;;;;;;-145.45;100.00;62759.84;5391831;27;20154;-76
2022/04/06 08:51:55;;;;;;;10.70;2.55;;;;;;;-145.45;100.00;62759.84;5392367;27;20014;-75
2022/04/06 08:54:27;;;;;;;8.70;3.25;;;;;;;-145.45;100.00;62759.84;5373018;27;20026;-76
2022/04/06 08:56:58;;;;;;;11.27;2.85;;;;;;;-145.45;100.00;62759.84;5391628;27;20018;-76
2022/04/06 08:59:29;;;;;;;12.85;2.90;;;;;;;-145.45;100.00;62759.84;5390829;27;20493;-75
2022/04/06 09:02:01;;;;;;;6.65;2.30;;;;;;;-145.45;100.00;62759.84;5384717;27;20478;-75
2022/04/06 09:04:35;;;;;;;9.55;2.60;;;;;;;-145.45;100.00;62759.84;5372820;27;20098;-75
2022/04/06 09:07:08;;;;;;;8.43;2.90;;;;;;;-145.45;100.00;62759.84;5391388;27;20411;-76
2022/04/06 09:09:40;;;;;;;8.88;2.95;;;;;;;-145.45;100.00;62759.84;5392093;27;20023;-75
2022/04/06 09:12:17;;;;;;;6.72;3.03;;;;;;;-145.45;100.00;62759.84;5388117;27;20034;-75
2022/04/06 09:15:12;;;;;;;8.20;2.60;;;;;;;-145.45;100.00;62759.84;5391024;27;20026;-76
2022/04/06 09:17:49;;;;;;;7.68;2.47;;;;;;;-145.45;100.00;62759.84;5391591;27;20391;-75
2022/04/06 09:20:24;;;;;;;10.38;3.05;;;;;;;-145.45;100.00;62759.84;5394719;27;20022;-76
2022/04/06 09:22:55;;;;;;;11.13;3.03;;;;;;;-145.45;100.00;62759.84;5395022;27;20525;-75
2022/04/06 09:25:33;;;;;;;9.95;3.58;;;;;;;-145.45;100.00;62759.84;5391666;27;20015;-75
2022/04/06 09:28:09;;;;;;;7.13;2.65;;;;;;;-145.45;100.00;62759.84;5371392;27;20038;-75
2022/04/06 09:30:46;;;;;;;8.40;2.33;;;;;;;-145.45;100.00;62759.84;5390729;27;20381;-76
2022/04/06 09:33:19;;;;;;;7.40;2.67;;;;;;;-145.45;100.00;62759.84;5390782;27;20032;-75
2022/04/06 09:35:50;;;;;;;8.45;2.38;;;;;;;-145.45;100.00;62759.84;5372820;27;20029;-75
2022/04/06 09:38:23;;;;;;;13.30;3.25;;;;;;;-145.45;100.00;62759.84;5390995;27;20026;-75
2022/04/06 09:41:06;;;;;;;4.55;2.40;;;;;;;-145.45;100.00;62759.84;5391326;27;20470;-75
2022/04/06 09:43:38;;;;;;;13.52;2.53;;;;;;;-145.45;100.00;62759.84;5386665;27;20031;-75
2022/04/06 09:49:19;;;;;;;10.63;3.33;;;;;;;-145.45;100.00;62759.84;5391106;27;20470;-75
2022/04/06 09:51:51;;;;;;;12.25;2.92;;;;;;;-145.45;100.00;62759.84;5382346;27;20032;-75
2022/04/06 09:54:26;;;;;;;9.05;3.13;;;;;;;-145.45;100.00;62759.84;5368936;27;20031;-75
2022/04/06 09:56:58;;;;;;;7.25;2.47;;;;;;;-145.45;100.00;62759.84;5386016;27;20023;-75
2022/04/06 09:59:32;;;;;;;8.00;2.72;;;;;;;-145.45;100.00;62759.84;5389965;27;20135;-75
2022/04/06 10:02:09;;;;;;;7.47;2.50;;;;;;;-145.45;100.00;62759.84;5388180;27;20080;-75
2022/04/06 10:04:43;;;;;;;5.95;2.08;;;;;;;-145.45;100.00;62759.84;5368928;27;20015;-75
2022/04/06 10:07:15;;;;;;;15.82;2.92;;;;;;;-145.45;100.00;62759.84;5369478;27;20104;-76
2022/04/06 10:09:48;;;;;;;16.27;3.67;;;;;;;-145.45;100.00;62759.84;5367822;27;20031;-75
2022/04/06 10:12:19;;;;;;;6.30;2.80;;;;;;;-145.45;100.00;62759.84;5390667;27;20021;-75
2022/04/06 10:14:52;;;;;;;11.38;3.15;;;;;;;-145.45;100.00;62759.84;5390200;27;20022;-75
2022/04/06 10:17:25;;;;;;;10.55;2.63;;;;;;;-145.45;100.00;62759.84;5371011;27;20503;-75
2022/04/06 10:20:08;;;;;;;10.20;2.70;;;;;;;-145.45;100.00;62759.84;5390869;27;20019;-75
2022/04/06 10:23:02;;;;;;;10.10;2.72;;;;;;;-145.45;100.00;62759.84;5371629;27;20483;-75
2022/04/06 10:25:51;;;;;;;8.13;2.70;;;;;;;-145.45;100.00;62759.84;5389841;27;20031;-76
2022/04/06 10:28:23;;;;;;;8.07;2.45;;;;;;;-145.45;100.00;62759.84;5376478;27;20079;-75
2022/04/06 10:31:15;;;;;;;5.43;2.85;;;;;;;-145.45;100.00;62759.84;5369103;27;20019;-75
2022/04/06 10:33:46;;;;;;;12.23;3.10;;;;;;;-145.45;100.00;62759.84;5349598;27;20057;-75
2022/04/06 10:36:30;;;;;;;7.70;2.78;;;;;;;-145.45;100.00;62759.84;5386269;27;20054;-75
2022/04/06 10:39:04;;;;;;;5.40;2.65;;;;;;;-145.45;100.00;62759.84;5390124;27;20090;-75
2022/04/06 10:41:59;;;;;;;5.72;2.63;;;;;;;-145.45;100.00;62759.84;5390187;27;20027;-75
2022/04/06 10:44:38;;;;;;;9.57;2.83;;;;;;;-145.45;100.00;62759.84;5388226;27;20042;-75
2022/04/06 10:47:11;;;;;;;7.63;2.92;;;;;;;-145.45;100.00;62759.84;5389784;27;20023;-76
2022/04/06 10:50:12;;;;;;;8.05;2.80;;;;;;;-145.45;100.00;62759.84;5390557;27;20054;-75
2022/04/06 10:52:44;;;;;;;11.40;2.80;;;;;;;-145.45;100.00;62759.84;5389217;27;20143;-75
2022/04/06 10:55:23;;;;;;;9.82;3.00;;;;;;;-145.45;100.00;62759.84;5370886;27;20109;-75
2022/04/06 10:58:04;;;;;;;5.88;2.22;;;;;;;-145.45;100.00;62759.84;5389202;27;20290;-75
2022/04/06 11:00:39;;;;;;;10.70;2.63;;;;;;;-145.45;100.00;62759.84;5388833;27;20042;-75
2022/04/06 11:03:15;;;;;;;7.13;3.03;;;;;;;-145.45;100.00;62759.84;5372432;27;20038;-75
2022/04/06 11:05:50;;;;;;;;;;;;;;;-145.45;100.00;62759.84;5368842;27;20098;-76
2022/04/06 11:11:46;;;;;;;6.82;2.75;;;;;;;-145.45;100.00;62759.84;5334746;27;20039;-75
2022/04/06 11:14:23;;;;;;;4.95;2.70;;;;;;;-145.45;100.00;62759.84;5366869;27;20015;-75
2022/04/06 11:16:55;;;;;;;6.00;2.47;;;;;;;-145.45;100.00;62759.84;5374065;27;21267;-76
2022/04/06 11:19:26;;;;;;;5.38;2.30;;;;;;;-145.45;100.00;62759.84;5388895;27;20041;-76
2022/04/06 11:21:58;;;;;;;7.13;3.10;;;;;;;-145.45;100.00;62759.84;5389546;27;20042;-75
2022/04/06 11:24:31;;;;;;;8.27;2.55;;;;;;;-145.45;100.00;62759.84;5369834;27;20019;-76
2022/04/06 11:27:02;;;;;;;8.43;2.70;;;;;;;-145.45;100.00;62759.84;5389384;27;20374;-75
2022/04/06 11:29:36;;;;;;;10.48;2.80;;;;;;;-145.45;100.00;62759.84;5392922;27;20094;-75
2022/04/06 11:32:07;;;;;;;8.65;3.08;;;;;;;-145.45;100.00;62759.84;5396322;27;20041;-75
2022/04/06 11:34:40;;;;;;;5.60;2.10;;;;;;;-145.45;100.00;62759.84;5396838;27;20015;-75
2022/04/06 11:37:12;;;;;;;5.95;2.10;;;;;;;-145.45;100.00;62759.84;5396643;27;20031;-75
2022/04/06 11:39:43;;;;;;;6.70;2.20;;;;;;;-145.45;100.00;62759.84;5395529;27;41689;-75
2022/04/06 11:42:17;;;;;;;6.13;2.28;;;;;;;-145.45;100.00;62759.84;5396326;27;20052;-75